logo
Rechercher aéroport 
image banner adimage banner adimage banner ad
image banner ad

SWIS - Caiapó

Situé à Caseara, Brazil

ICAO - SWIS, IATA -

Données fournies par Airmate  

Information générale

Coordonnées: S9°11'12" W49°46'31"
Élévation : 647 feet MSL.
Variation magnétique : -20.974201945° East
Voir autres Aéroports à Tocatins

Données opérationnelles

Special qualification required
Heure actuelle UTC:
Heure actuelle locale:
Météo à : - ( 0 km )
METAR: YSCB 251735Z AUTO 11004KT 0350 FG BKN001 03/03 Q1026 RF00/0/000/0
Voir NOTAMs / SUP AIP / TFR affectant cet aéroport [VIEW]
Fréquences de communication: [VIEW]

Pistes:

Identifiant RWYQFULongueur (ft)Largeur (ft)SurfaceLDA (ft)
13459382ASPH
31459382ASPH

Coordonnées de l'aéroport

Adresse: Caseara Brazil

Vue satellite de SWIS